sensor_id;sensor_type;location;lat;lon;timestamp;P1;durP1;ratioP1;P2;durP2;ratioP2
29432;SDS011;16405;53.964;13.448;2023-04-25T00:01:53;9.73;;;4.78;;
29432;SDS011;16405;53.964;13.448;2023-04-25T00:04:19;11.40;;;5.03;;
29432;SDS011;16405;53.964;13.448;2023-04-25T00:06:46;8.55;;;4.72;;
29432;SDS011;16405;53.964;13.448;2023-04-25T00:09:12;8.73;;;4.93;;
29432;SDS011;16405;53.964;13.448;2023-04-25T00:11:41;7.55;;;4.55;;
29432;SDS011;16405;53.964;13.448;2023-04-25T00:14:14;11.48;;;5.13;;
29432;SDS011;16405;53.964;13.448;2023-04-25T00:16:47;8.35;;;4.47;;
29432;SDS011;16405;53.964;13.448;2023-04-25T00:19:18;11.27;;;4.68;;
29432;SDS011;16405;53.964;13.448;2023-04-25T00:22:06;10.77;;;4.57;;
29432;SDS011;16405;53.964;13.448;2023-04-25T00:24:33;9.75;;;4.43;;
29432;SDS011;16405;53.964;13.448;2023-04-25T00:26:58;9.77;;;4.68;;
29432;SDS011;16405;53.964;13.448;2023-04-25T00:29:24;5.63;;;4.20;;
29432;SDS011;16405;53.964;13.448;2023-04-25T00:31:50;12.15;;;4.72;;
29432;SDS011;16405;53.964;13.448;2023-04-25T00:34:24;11.02;;;4.50;;
29432;SDS011;16405;53.964;13.448;2023-04-25T00:36:50;9.50;;;4.43;;
29432;SDS011;16405;53.964;13.448;2023-04-25T00:39:16;8.68;;;4.00;;
29432;SDS011;16405;53.964;13.448;2023-04-25T00:41:42;6.68;;;3.88;;
29432;SDS011;16405;53.964;13.448;2023-04-25T00:44:09;7.22;;;4.50;;
29432;SDS011;16405;53.964;13.448;2023-04-25T00:46:38;10.43;;;3.85;;
29432;SDS011;16405;53.964;13.448;2023-04-25T00:49:05;7.10;;;4.00;;
29432;SDS011;16405;53.964;13.448;2023-04-25T00:51:31;7.10;;;4.15;;
29432;SDS011;16405;53.964;13.448;2023-04-25T00:53:58;11.27;;;4.10;;
29432;SDS011;16405;53.964;13.448;2023-04-25T00:56:25;11.60;;;4.47;;
29432;SDS011;16405;53.964;13.448;2023-04-25T00:58:53;9.88;;;3.67;;
29432;SDS011;16405;53.964;13.448;2023-04-25T01:01:21;13.13;;;4.30;;
29432;SDS011;16405;53.964;13.448;2023-04-25T01:03:47;7.63;;;3.35;;
29432;SDS011;16405;53.964;13.448;2023-04-25T01:06:15;18.50;;;4.22;;
29432;SDS011;16405;53.964;13.448;2023-04-25T01:08:41;8.27;;;3.88;;
29432;SDS011;16405;53.964;13.448;2023-04-25T01:11:10;7.95;;;3.60;;
29432;SDS011;16405;53.964;13.448;2023-04-25T01:13:36;10.60;;;3.30;;
29432;SDS011;16405;53.964;13.448;2023-04-25T01:16:02;6.53;;;3.00;;
29432;SDS011;16405;53.964;13.448;2023-04-25T01:18:28;6.82;;;3.47;;
29432;SDS011;16405;53.964;13.448;2023-04-25T01:20:54;11.77;;;3.17;;
29432;SDS011;16405;53.964;13.448;2023-04-25T01:23:23;9.32;;;3.35;;
29432;SDS011;16405;53.964;13.448;2023-04-25T01:25:49;7.65;;;3.40;;
29432;SDS011;16405;53.964;13.448;2023-04-25T01:28:15;7.90;;;3.42;;
29432;SDS011;16405;53.964;13.448;2023-04-25T01:30:42;9.88;;;3.40;;
29432;SDS011;16405;53.964;13.448;2023-04-25T01:33:08;11.88;;;3.70;;
29432;SDS011;16405;53.964;13.448;2023-04-25T01:35:35;11.40;;;3.95;;
29432;SDS011;16405;53.964;13.448;2023-04-25T01:38:00;8.55;;;4.05;;
29432;SDS011;16405;53.964;13.448;2023-04-25T01:40:27;14.05;;;3.92;;
29432;SDS011;16405;53.964;13.448;2023-04-25T01:42:53;15.63;;;4.93;;
29432;SDS011;16405;53.964;13.448;2023-04-25T01:45:20;13.40;;;4.43;;
29432;SDS011;16405;53.964;13.448;2023-04-25T01:47:46;14.30;;;4.85;;
29432;SDS011;16405;53.964;13.448;2023-04-25T01:50:14;12.48;;;5.13;;
29432;SDS011;16405;53.964;13.448;2023-04-25T01:52:44;11.50;;;4.93;;
29432;SDS011;16405;53.964;13.448;2023-04-25T01:55:10;11.85;;;5.43;;
29432;SDS011;16405;53.964;13.448;2023-04-25T01:57:36;8.50;;;5.25;;
29432;SDS011;16405;53.964;13.448;2023-04-25T02:00:03;10.93;;;5.57;;
29432;SDS011;16405;53.964;13.448;2023-04-25T02:02:34;13.05;;;5.55;;
29432;SDS011;16405;53.964;13.448;2023-04-25T02:05:03;17.35;;;5.75;;
29432;SDS011;16405;53.964;13.448;2023-04-25T02:07:29;18.77;;;6.30;;
29432;SDS011;16405;53.964;13.448;2023-04-25T02:09:55;15.25;;;6.35;;
29432;SDS011;16405;53.964;13.448;2023-04-25T02:15:26;15.40;;;5.95;;
29432;SDS011;16405;53.964;13.448;2023-04-25T02:17:52;13.63;;;6.47;;
29432;SDS011;16405;53.964;13.448;2023-04-25T02:20:19;15.75;;;7.13;;
29432;SDS011;16405;53.964;13.448;2023-04-25T02:22:47;15.45;;;6.57;;
29432;SDS011;16405;53.964;13.448;2023-04-25T02:25:25;11.23;;;6.40;;
29432;SDS011;16405;53.964;13.448;2023-04-25T02:27:51;15.02;;;6.50;;
29432;SDS011;16405;53.964;13.448;2023-04-25T02:30:26;14.57;;;6.90;;
29432;SDS011;16405;53.964;13.448;2023-04-25T02:32:54;16.48;;;7.45;;
29432;SDS011;16405;53.964;13.448;2023-04-25T02:35:21;17.50;;;7.10;;
29432;SDS011;16405;53.964;13.448;2023-04-25T02:37:52;15.63;;;7.25;;
29432;SDS011;16405;53.964;13.448;2023-04-25T02:40:19;14.77;;;7.20;;
29432;SDS011;16405;53.964;13.448;2023-04-25T02:42:45;18.58;;;7.57;;
29432;SDS011;16405;53.964;13.448;2023-04-25T02:45:18;17.45;;;7.50;;
29432;SDS011;16405;53.964;13.448;2023-04-25T02:51:14;14.02;;;6.47;;
29432;SDS011;16405;53.964;13.448;2023-04-25T02:53:41;16.58;;;6.05;;
29432;SDS011;16405;53.964;13.448;2023-04-25T02:56:19;16.80;;;6.55;;
29432;SDS011;16405;53.964;13.448;2023-04-25T02:58:45;11.50;;;6.10;;
29432;SDS011;16405;53.964;13.448;2023-04-25T03:01:11;16.73;;;6.40;;
29432;SDS011;16405;53.964;13.448;2023-04-25T03:04:03;16.50;;;6.53;;
29432;SDS011;16405;53.964;13.448;2023-04-25T03:06:29;22.90;;;7.07;;
29432;SDS011;16405;53.964;13.448;2023-04-25T03:09:02;12.98;;;6.13;;
29432;SDS011;16405;53.964;13.448;2023-04-25T03:11:28;13.70;;;6.00;;
29432;SDS011;16405;53.964;13.448;2023-04-25T03:13:54;13.00;;;6.80;;
29432;SDS011;16405;53.964;13.448;2023-04-25T03:16:21;11.73;;;6.60;;
29432;SDS011;16405;53.964;13.448;2023-04-25T03:18:47;16.23;;;7.10;;
29432;SDS011;16405;53.964;13.448;2023-04-25T03:21:17;19.02;;;6.88;;
29432;SDS011;16405;53.964;13.448;2023-04-25T03:23:44;13.70;;;6.60;;
29432;SDS011;16405;53.964;13.448;2023-04-25T03:26:10;18.58;;;6.75;;
29432;SDS011;16405;53.964;13.448;2023-04-25T03:28:36;16.05;;;7.60;;
29432;SDS011;16405;53.964;13.448;2023-04-25T03:31:02;21.15;;;7.53;;
29432;SDS011;16405;53.964;13.448;2023-04-25T03:33:38;13.15;;;7.60;;
29432;SDS011;16405;53.964;13.448;2023-04-25T03:36:04;12.88;;;7.78;;
29432;SDS011;16405;53.964;13.448;2023-04-25T03:38:30;17.02;;;8.63;;
29432;SDS011;16405;53.964;13.448;2023-04-25T03:41:04;17.38;;;8.57;;
29432;SDS011;16405;53.964;13.448;2023-04-25T03:43:29;15.43;;;9.55;;
29432;SDS011;16405;53.964;13.448;2023-04-25T03:45:58;23.08;;;10.27;;
29432;SDS011;16405;53.964;13.448;2023-04-25T03:48:32;22.63;;;9.35;;
29432;SDS011;16405;53.964;13.448;2023-04-25T03:50:58;16.75;;;9.50;;
29432;SDS011;16405;53.964;13.448;2023-04-25T03:53:34;18.92;;;9.60;;
29432;SDS011;16405;53.964;13.448;2023-04-25T03:56:02;19.83;;;10.05;;
29432;SDS011;16405;53.964;13.448;2023-04-25T03:58:29;16.17;;;9.60;;
29432;SDS011;16405;53.964;13.448;2023-04-25T04:01:02;15.52;;;9.45;;
29432;SDS011;16405;53.964;13.448;2023-04-25T04:03:32;17.13;;;9.32;;
29432;SDS011;16405;53.964;13.448;2023-04-25T04:06:09;19.33;;;9.25;;
29432;SDS011;16405;53.964;13.448;2023-04-25T04:08:35;21.20;;;9.05;;
29432;SDS011;16405;53.964;13.448;2023-04-25T04:11:19;18.95;;;8.50;;
29432;SDS011;16405;53.964;13.448;2023-04-25T04:13:51;15.43;;;7.90;;
29432;SDS011;16405;53.964;13.448;2023-04-25T04:16:18;16.00;;;7.95;;
29432;SDS011;16405;53.964;13.448;2023-04-25T04:18:54;22.38;;;8.15;;
29432;SDS011;16405;53.964;13.448;2023-04-25T04:21:20;25.95;;;8.90;;
29432;SDS011;16405;53.964;13.448;2023-04-25T04:23:58;19.60;;;7.93;;
29432;SDS011;16405;53.964;13.448;2023-04-25T04:26:41;18.35;;;7.63;;
29432;SDS011;16405;53.964;13.448;2023-04-25T04:29:10;17.08;;;7.80;;
29432;SDS011;16405;53.964;13.448;2023-04-25T04:31:47;18.58;;;6.53;;
29432;SDS011;16405;53.964;13.448;2023-04-25T04:34:14;20.23;;;6.90;;
29432;SDS011;16405;53.964;13.448;2023-04-25T04:36:43;19.00;;;6.68;;
29432;SDS011;16405;53.964;13.448;2023-04-25T04:39:12;12.05;;;6.57;;
29432;SDS011;16405;53.964;13.448;2023-04-25T04:41:39;13.07;;;6.53;;
29432;SDS011;16405;53.964;13.448;2023-04-25T04:44:05;24.88;;;7.32;;
29432;SDS011;16405;53.964;13.448;2023-04-25T04:46:40;12.50;;;6.63;;
29432;SDS011;16405;53.964;13.448;2023-04-25T04:49:09;16.55;;;6.25;;
29432;SDS011;16405;53.964;13.448;2023-04-25T04:51:44;16.33;;;6.93;;
29432;SDS011;16405;53.964;13.448;2023-04-25T04:54:10;16.75;;;6.97;;
29432;SDS011;16405;53.964;13.448;2023-04-25T04:57:04;14.98;;;6.45;;
29432;SDS011;16405;53.964;13.448;2023-04-25T04:59:30;17.30;;;6.30;;
29432;SDS011;16405;53.964;13.448;2023-04-25T05:01:55;20.30;;;6.82;;
29432;SDS011;16405;53.964;13.448;2023-04-25T05:04:39;15.65;;;6.47;;
29432;SDS011;16405;53.964;13.448;2023-04-25T05:07:17;19.67;;;6.18;;
29432;SDS011;16405;53.964;13.448;2023-04-25T05:09:44;17.38;;;6.30;;
29432;SDS011;16405;53.964;13.448;2023-04-25T05:12:19;14.02;;;5.35;;
29432;SDS011;16405;53.964;13.448;2023-04-25T05:14:45;17.95;;;5.57;;
29432;SDS011;16405;53.964;13.448;2023-04-25T05:17:11;19.40;;;6.30;;
29432;SDS011;16405;53.964;13.448;2023-04-25T05:19:44;23.35;;;6.00;;
29432;SDS011;16405;53.964;13.448;2023-04-25T05:22:09;17.58;;;5.07;;
29432;SDS011;16405;53.964;13.448;2023-04-25T05:24:35;23.42;;;4.85;;
29432;SDS011;16405;53.964;13.448;2023-04-25T05:27:02;18.17;;;4.85;;
29432;SDS011;16405;53.964;13.448;2023-04-25T05:29:34;19.05;;;4.57;;
29432;SDS011;16405;53.964;13.448;2023-04-25T05:32:00;17.40;;;4.10;;
29432;SDS011;16405;53.964;13.448;2023-04-25T05:34:30;15.23;;;3.88;;
29432;SDS011;16405;53.964;13.448;2023-04-25T05:36:58;20.75;;;4.68;;
29432;SDS011;16405;53.964;13.448;2023-04-25T05:39:26;25.88;;;4.95;;
29432;SDS011;16405;53.964;13.448;2023-04-25T05:41:52;19.58;;;4.47;;
29432;SDS011;16405;53.964;13.448;2023-04-25T05:44:18;19.30;;;4.03;;
29432;SDS011;16405;53.964;13.448;2023-04-25T05:46:44;16.48;;;3.67;;
29432;SDS011;16405;53.964;13.448;2023-04-25T05:49:09;27.60;;;4.35;;
29432;SDS011;16405;53.964;13.448;2023-04-25T05:51:43;24.98;;;4.63;;
29432;SDS011;16405;53.964;13.448;2023-04-25T05:54:09;28.48;;;4.65;;
29432;SDS011;16405;53.964;13.448;2023-04-25T05:59:10;19.50;;;3.93;;
29432;SDS011;16405;53.964;13.448;2023-04-25T06:01:36;23.35;;;3.83;;
29432;SDS011;16405;53.964;13.448;2023-04-25T06:04:02;23.90;;;4.32;;
29432;SDS011;16405;53.964;13.448;2023-04-25T06:06:30;25.98;;;4.50;;
29432;SDS011;16405;53.964;13.448;2023-04-25T06:08:59;26.33;;;4.03;;
29432;SDS011;16405;53.964;13.448;2023-04-25T06:11:27;27.45;;;4.35;;
29432;SDS011;16405;53.964;13.448;2023-04-25T06:13:53;22.88;;;4.32;;
29432;SDS011;16405;53.964;13.448;2023-04-25T06:16:19;23.08;;;3.75;;
29432;SDS011;16405;53.964;13.448;2023-04-25T06:18:45;24.58;;;3.75;;
29432;SDS011;16405;53.964;13.448;2023-04-25T06:21:11;29.23;;;4.72;;
29432;SDS011;16405;53.964;13.448;2023-04-25T06:23:42;21.88;;;3.80;;
29432;SDS011;16405;53.964;13.448;2023-04-25T06:26:08;20.55;;;3.50;;
29432;SDS011;16405;53.964;13.448;2023-04-25T06:28:34;22.65;;;3.83;;
29432;SDS011;16405;53.964;13.448;2023-04-25T06:31:00;23.23;;;4.45;;
29432;SDS011;16405;53.964;13.448;2023-04-25T06:33:25;17.88;;;3.53;;
29432;SDS011;16405;53.964;13.448;2023-04-25T06:35:51;22.85;;;3.92;;
29432;SDS011;16405;53.964;13.448;2023-04-25T06:38:24;21.65;;;4.40;;
29432;SDS011;16405;53.964;13.448;2023-04-25T06:40:50;26.33;;;4.38;;
29432;SDS011;16405;53.964;13.448;2023-04-25T06:43:16;22.95;;;3.92;;
29432;SDS011;16405;53.964;13.448;2023-04-25T06:45:42;21.45;;;4.18;;
29432;SDS011;16405;53.964;13.448;2023-04-25T06:48:07;22.63;;;4.22;;
29432;SDS011;16405;53.964;13.448;2023-04-25T06:50:42;27.40;;;4.32;;
29432;SDS011;16405;53.964;13.448;2023-04-25T06:53:08;21.48;;;4.05;;
29432;SDS011;16405;53.964;13.448;2023-04-25T06:55:43;22.88;;;4.35;;
29432;SDS011;16405;53.964;13.448;2023-04-25T06:58:09;17.75;;;3.45;;
29432;SDS011;16405;53.964;13.448;2023-04-25T07:00:35;15.85;;;3.25;;
29432;SDS011;16405;53.964;13.448;2023-04-25T07:03:01;22.08;;;4.32;;
29432;SDS011;16405;53.964;13.448;2023-04-25T07:05:27;16.92;;;3.00;;
29432;SDS011;16405;53.964;13.448;2023-04-25T07:07:58;20.85;;;3.38;;
29432;SDS011;16405;53.964;13.448;2023-04-25T07:10:25;29.15;;;4.75;;
29432;SDS011;16405;53.964;13.448;2023-04-25T07:12:51;25.98;;;3.92;;
29432;SDS011;16405;53.964;13.448;2023-04-25T07:15:16;24.25;;;3.85;;
29432;SDS011;16405;53.964;13.448;2023-04-25T07:17:42;22.20;;;4.07;;
29432;SDS011;16405;53.964;13.448;2023-04-25T07:20:08;19.75;;;3.70;;
29432;SDS011;16405;53.964;13.448;2023-04-25T07:22:43;20.13;;;3.55;;
29432;SDS011;16405;53.964;13.448;2023-04-25T07:25:09;31.98;;;4.70;;
29432;SDS011;16405;53.964;13.448;2023-04-25T07:27:35;20.60;;;3.63;;
29432;SDS011;16405;53.964;13.448;2023-04-25T07:30:08;19.58;;;3.40;;
29432;SDS011;16405;53.964;13.448;2023-04-25T07:32:34;23.65;;;3.90;;
29432;SDS011;16405;53.964;13.448;2023-04-25T07:35:00;26.65;;;4.05;;
29432;SDS011;16405;53.964;13.448;2023-04-25T07:37:26;23.88;;;4.47;;
29432;SDS011;16405;53.964;13.448;2023-04-25T07:39:52;24.85;;;3.80;;
29432;SDS011;16405;53.964;13.448;2023-04-25T07:42:18;29.25;;;4.45;;
29432;SDS011;16405;53.964;13.448;2023-04-25T07:44:46;25.05;;;4.30;;
29432;SDS011;16405;53.964;13.448;2023-04-25T07:47:12;29.25;;;4.43;;
29432;SDS011;16405;53.964;13.448;2023-04-25T07:49:38;23.33;;;4.10;;
29432;SDS011;16405;53.964;13.448;2023-04-25T07:52:05;18.75;;;3.90;;
29432;SDS011;16405;53.964;13.448;2023-04-25T07:54:31;25.10;;;4.43;;
29432;SDS011;16405;53.964;13.448;2023-04-25T07:57:02;25.23;;;4.30;;
29432;SDS011;16405;53.964;13.448;2023-04-25T07:59:31;25.55;;;4.40;;
29432;SDS011;16405;53.964;13.448;2023-04-25T08:01:57;27.98;;;4.35;;
29432;SDS011;16405;53.964;13.448;2023-04-25T08:04:23;24.00;;;3.90;;
29432;SDS011;16405;53.964;13.448;2023-04-25T08:06:54;28.05;;;5.72;;
29432;SDS011;16405;53.964;13.448;2023-04-25T08:09:20;23.50;;;4.20;;
29432;SDS011;16405;53.964;13.448;2023-04-25T08:11:46;22.95;;;4.05;;
29432;SDS011;16405;53.964;13.448;2023-04-25T08:14:13;24.75;;;5.50;;
29432;SDS011;16405;53.964;13.448;2023-04-25T08:16:39;23.95;;;4.10;;
29432;SDS011;16405;53.964;13.448;2023-04-25T08:19:12;25.52;;;4.43;;
29432;SDS011;16405;53.964;13.448;2023-04-25T08:21:38;22.88;;;3.92;;
29432;SDS011;16405;53.964;13.448;2023-04-25T08:24:04;26.25;;;4.63;;
29432;SDS011;16405;53.964;13.448;2023-04-25T08:26:30;25.13;;;4.07;;
29432;SDS011;16405;53.964;13.448;2023-04-25T08:29:04;22.70;;;4.15;;
29432;SDS011;16405;53.964;13.448;2023-04-25T08:31:31;26.27;;;4.65;;
29432;SDS011;16405;53.964;13.448;2023-04-25T08:33:57;27.83;;;4.35;;
29432;SDS011;16405;53.964;13.448;2023-04-25T08:36:22;21.75;;;4.10;;
29432;SDS011;16405;53.964;13.448;2023-04-25T08:38:51;20.88;;;4.53;;
29432;SDS011;16405;53.964;13.448;2023-04-25T08:41:20;33.67;;;5.20;;
29432;SDS011;16405;53.964;13.448;2023-04-25T08:43:47;26.05;;;4.07;;
29432;SDS011;16405;53.964;13.448;2023-04-25T08:46:16;21.75;;;4.10;;
29432;SDS011;16405;53.964;13.448;2023-04-25T08:48:51;25.55;;;4.57;;
29432;SDS011;16405;53.964;13.448;2023-04-25T08:51:31;29.60;;;4.18;;
29432;SDS011;16405;53.964;13.448;2023-04-25T08:54:03;16.60;;;3.63;;
29432;SDS011;16405;53.964;13.448;2023-04-25T08:56:38;21.73;;;3.55;;
29432;SDS011;16405;53.964;13.448;2023-04-25T08:59:09;22.95;;;3.85;;
29432;SDS011;16405;53.964;13.448;2023-04-25T09:01:36;27.90;;;4.05;;
29432;SDS011;16405;53.964;13.448;2023-04-25T09:04:02;25.25;;;3.47;;
29432;SDS011;16405;53.964;13.448;2023-04-25T09:06:30;22.58;;;3.78;;
29432;SDS011;16405;53.964;13.448;2023-04-25T09:09:06;19.50;;;3.42;;
29432;SDS011;16405;53.964;13.448;2023-04-25T09:11:37;21.05;;;3.47;;
29432;SDS011;16405;53.964;13.448;2023-04-25T09:14:13;20.17;;;3.03;;
29432;SDS011;16405;53.964;13.448;2023-04-25T09:17:08;16.27;;;2.90;;
29432;SDS011;16405;53.964;13.448;2023-04-25T09:19:36;21.33;;;3.63;;
29432;SDS011;16405;53.964;13.448;2023-04-25T09:22:05;21.38;;;3.63;;
29432;SDS011;16405;53.964;13.448;2023-04-25T09:24:42;23.52;;;3.75;;
29432;SDS011;16405;53.964;13.448;2023-04-25T09:27:22;16.38;;;2.63;;
29432;SDS011;16405;53.964;13.448;2023-04-25T09:29:50;22.83;;;3.10;;
29432;SDS011;16405;53.964;13.448;2023-04-25T09:32:27;20.52;;;3.70;;
29432;SDS011;16405;53.964;13.448;2023-04-25T09:34:56;17.73;;;3.25;;
29432;SDS011;16405;53.964;13.448;2023-04-25T09:37:26;19.27;;;3.28;;
29432;SDS011;16405;53.964;13.448;2023-04-25T09:39:57;10.50;;;2.08;;
29432;SDS011;16405;53.964;13.448;2023-04-25T09:42:30;23.70;;;3.30;;
29432;SDS011;16405;53.964;13.448;2023-04-25T09:45:02;26.77;;;3.78;;
29432;SDS011;16405;53.964;13.448;2023-04-25T09:47:36;18.50;;;3.17;;
29432;SDS011;16405;53.964;13.448;2023-04-25T09:50:15;19.73;;;3.55;;
29432;SDS011;16405;53.964;13.448;2023-04-25T09:52:45;23.05;;;3.75;;
29432;SDS011;16405;53.964;13.448;2023-04-25T09:55:31;17.35;;;2.63;;
29432;SDS011;16405;53.964;13.448;2023-04-25T09:58:05;16.15;;;3.03;;
29432;SDS011;16405;53.964;13.448;2023-04-25T10:00:38;22.92;;;3.83;;
29432;SDS011;16405;53.964;13.448;2023-04-25T10:03:11;26.85;;;3.55;;
29432;SDS011;16405;53.964;13.448;2023-04-25T10:05:41;15.05;;;3.90;;
29432;SDS011;16405;53.964;13.448;2023-04-25T10:08:12;23.00;;;3.70;;
29432;SDS011;16405;53.964;13.448;2023-04-25T10:10:44;18.65;;;3.35;;
29432;SDS011;16405;53.964;13.448;2023-04-25T10:13:11;25.23;;;3.10;;
29432;SDS011;16405;53.964;13.448;2023-04-25T10:15:41;16.38;;;2.40;;
29432;SDS011;16405;53.964;13.448;2023-04-25T10:18:13;23.67;;;3.63;;
29432;SDS011;16405;53.964;13.448;2023-04-25T10:20:40;23.42;;;3.15;;
29432;SDS011;16405;53.964;13.448;2023-04-25T10:23:15;20.15;;;4.07;;
29432;SDS011;16405;53.964;13.448;2023-04-25T10:25:42;16.27;;;2.85;;
29432;SDS011;16405;53.964;13.448;2023-04-25T10:28:09;20.02;;;3.22;;
29432;SDS011;16405;53.964;13.448;2023-04-25T10:30:59;18.90;;;3.28;;
29432;SDS011;16405;53.964;13.448;2023-04-25T10:33:33;24.30;;;3.60;;
29432;SDS011;16405;53.964;13.448;2023-04-25T10:36:22;22.92;;;3.08;;
29432;SDS011;16405;53.964;13.448;2023-04-25T10:38:54;14.30;;;2.65;;
29432;SDS011;16405;53.964;13.448;2023-04-25T10:41:22;16.70;;;2.67;;
29432;SDS011;16405;53.964;13.448;2023-04-25T10:43:58;20.40;;;3.17;;
29432;SDS011;16405;53.964;13.448;2023-04-25T10:46:27;23.23;;;3.17;;
29432;SDS011;16405;53.964;13.448;2023-04-25T10:49:00;26.10;;;4.15;;
29432;SDS011;16405;53.964;13.448;2023-04-25T10:51:31;26.35;;;3.92;;
29432;SDS011;16405;53.964;13.448;2023-04-25T10:54:06;16.63;;;2.95;;
29432;SDS011;16405;53.964;13.448;2023-04-25T10:56:36;24.27;;;3.22;;
29432;SDS011;16405;53.964;13.448;2023-04-25T10:59:18;22.83;;;3.28;;
29432;SDS011;16405;53.964;13.448;2023-04-25T11:01:53;22.85;;;3.90;;
29432;SDS011;16405;53.964;13.448;2023-04-25T11:04:29;15.55;;;3.60;;
29432;SDS011;16405;53.964;13.448;2023-04-25T11:10:01;16.70;;;3.50;;
29432;SDS011;16405;53.964;13.448;2023-04-25T11:12:35;22.10;;;3.67;;
29432;SDS011;16405;53.964;13.448;2023-04-25T11:15:07;23.58;;;3.50;;
29432;SDS011;16405;53.964;13.448;2023-04-25T11:17:33;18.60;;;3.65;;
29432;SDS011;16405;53.964;13.448;2023-04-25T11:20:00;22.13;;;3.95;;
29432;SDS011;16405;53.964;13.448;2023-04-25T11:22:35;24.77;;;3.35;;
29432;SDS011;16405;53.964;13.448;2023-04-25T11:25:13;24.75;;;3.42;;
29432;SDS011;16405;53.964;13.448;2023-04-25T11:27:53;18.10;;;3.30;;
29432;SDS011;16405;53.964;13.448;2023-04-25T11:30:25;19.02;;;3.10;;
29432;SDS011;16405;53.964;13.448;2023-04-25T11:32:56;20.88;;;2.92;;
29432;SDS011;16405;53.964;13.448;2023-04-25T11:35:31;22.50;;;3.38;;
29432;SDS011;16405;53.964;13.448;2023-04-25T11:37:58;20.52;;;3.65;;
29432;SDS011;16405;53.964;13.448;2023-04-25T11:40:27;19.80;;;3.55;;
29432;SDS011;16405;53.964;13.448;2023-04-25T11:42:56;21.63;;;3.40;;
29432;SDS011;16405;53.964;13.448;2023-04-25T11:45:24;20.85;;;2.80;;
29432;SDS011;16405;53.964;13.448;2023-04-25T11:47:51;21.55;;;3.28;;
29432;SDS011;16405;53.964;13.448;2023-04-25T11:50:23;23.85;;;3.60;;
29432;SDS011;16405;53.964;13.448;2023-04-25T11:52:49;25.65;;;3.15;;
29432;SDS011;16405;53.964;13.448;2023-04-25T11:55:18;17.25;;;3.00;;
29432;SDS011;16405;53.964;13.448;2023-04-25T11:57:46;24.83;;;3.25;;
29432;SDS011;16405;53.964;13.448;2023-04-25T12:00:17;16.38;;;2.65;;
29432;SDS011;16405;53.964;13.448;2023-04-25T12:02:46;18.15;;;3.40;;
29432;SDS011;16405;53.964;13.448;2023-04-25T12:05:17;14.90;;;2.70;;
29432;SDS011;16405;53.964;13.448;2023-04-25T12:07:44;19.17;;;3.55;;
29432;SDS011;16405;53.964;13.448;2023-04-25T12:10:12;20.30;;;3.25;;
29432;SDS011;16405;53.964;13.448;2023-04-25T12:12:45;20.63;;;3.10;;
29432;SDS011;16405;53.964;13.448;2023-04-25T12:15:16;18.85;;;2.55;;
29432;SDS011;16405;53.964;13.448;2023-04-25T12:17:51;20.58;;;3.15;;
29432;SDS011;16405;53.964;13.448;2023-04-25T12:20:23;24.58;;;2.97;;
29432;SDS011;16405;53.964;13.448;2023-04-25T12:22:51;15.38;;;2.78;;
29432;SDS011;16405;53.964;13.448;2023-04-25T12:30:57;18.90;;;2.97;;
29432;SDS011;16405;53.964;13.448;2023-04-25T12:33:35;19.17;;;3.03;;
29432;SDS011;16405;53.964;13.448;2023-04-25T12:36:05;19.25;;;3.28;;
29432;SDS011;16405;53.964;13.448;2023-04-25T12:38:42;15.07;;;2.78;;
29432;SDS011;16405;53.964;13.448;2023-04-25T12:41:08;15.35;;;2.95;;
29432;SDS011;16405;53.964;13.448;2023-04-25T12:43:34;17.58;;;2.80;;
29432;SDS011;16405;53.964;13.448;2023-04-25T12:46:00;18.52;;;2.85;;
29432;SDS011;16405;53.964;13.448;2023-04-25T12:48:29;15.88;;;3.10;;
29432;SDS011;16405;53.964;13.448;2023-04-25T12:50:55;14.90;;;2.92;;
29432;SDS011;16405;53.964;13.448;2023-04-25T12:53:21;15.77;;;2.72;;
29432;SDS011;16405;53.964;13.448;2023-04-25T12:55:49;20.50;;;2.75;;
29432;SDS011;16405;53.964;13.448;2023-04-25T12:58:16;13.10;;;2.70;;
29432;SDS011;16405;53.964;13.448;2023-04-25T13:00:50;18.40;;;3.00;;
29432;SDS011;16405;53.964;13.448;2023-04-25T13:03:16;17.35;;;2.78;;
29432;SDS011;16405;53.964;13.448;2023-04-25T13:05:42;16.58;;;2.88;;
29432;SDS011;16405;53.964;13.448;2023-04-25T13:08:08;18.98;;;2.80;;
29432;SDS011;16405;53.964;13.448;2023-04-25T13:10:37;17.13;;;2.55;;
29432;SDS011;16405;53.964;13.448;2023-04-25T13:13:04;15.63;;;2.53;;
29432;SDS011;16405;53.964;13.448;2023-04-25T13:15:30;11.95;;;2.00;;
29432;SDS011;16405;53.964;13.448;2023-04-25T13:17:56;13.43;;;2.70;;
29432;SDS011;16405;53.964;13.448;2023-04-25T13:20:21;17.33;;;3.08;;
29432;SDS011;16405;53.964;13.448;2023-04-25T13:22:47;10.68;;;2.50;;
29432;SDS011;16405;53.964;13.448;2023-04-25T13:25:13;16.83;;;2.38;;
29432;SDS011;16405;53.964;13.448;2023-04-25T13:27:41;11.98;;;2.88;;
29432;SDS011;16405;53.964;13.448;2023-04-25T13:30:09;19.77;;;2.90;;
29432;SDS011;16405;53.964;13.448;2023-04-25T13:32:36;24.13;;;2.67;;
29432;SDS011;16405;53.964;13.448;2023-04-25T13:35:04;19.75;;;3.08;;
29432;SDS011;16405;53.964;13.448;2023-04-25T13:37:33;17.80;;;2.75;;
29432;SDS011;16405;53.964;13.448;2023-04-25T13:40:03;42.28;;;5.13;;
29432;SDS011;16405;53.964;13.448;2023-04-25T13:42:32;26.92;;;3.92;;
29432;SDS011;16405;53.964;13.448;2023-04-25T13:45:01;18.48;;;2.78;;
29432;SDS011;16405;53.964;13.448;2023-04-25T13:47:28;18.70;;;3.20;;
29432;SDS011;16405;53.964;13.448;2023-04-25T13:49:55;19.67;;;2.33;;
29432;SDS011;16405;53.964;13.448;2023-04-25T13:52:21;11.93;;;2.05;;
29432;SDS011;16405;53.964;13.448;2023-04-25T13:54:51;17.10;;;2.30;;
29432;SDS011;16405;53.964;13.448;2023-04-25T13:57:20;15.73;;;2.53;;
29432;SDS011;16405;53.964;13.448;2023-04-25T13:59:46;18.98;;;2.55;;
29432;SDS011;16405;53.964;13.448;2023-04-25T14:02:12;18.00;;;2.65;;
29432;SDS011;16405;53.964;13.448;2023-04-25T14:04:38;19.92;;;3.03;;
29432;SDS011;16405;53.964;13.448;2023-04-25T14:07:05;19.70;;;3.30;;
29432;SDS011;16405;53.964;13.448;2023-04-25T14:09:31;16.50;;;2.67;;
29432;SDS011;16405;53.964;13.448;2023-04-25T14:11:59;10.93;;;1.85;;
29432;SDS011;16405;53.964;13.448;2023-04-25T14:14:25;18.60;;;2.60;;
29432;SDS011;16405;53.964;13.448;2023-04-25T14:16:51;18.13;;;2.80;;
29432;SDS011;16405;53.964;13.448;2023-04-25T14:19:19;19.02;;;2.72;;
29432;SDS011;16405;53.964;13.448;2023-04-25T14:21:50;16.50;;;2.92;;
29432;SDS011;16405;53.964;13.448;2023-04-25T14:24:16;16.85;;;2.35;;
29432;SDS011;16405;53.964;13.448;2023-04-25T14:26:42;14.20;;;2.13;;
29432;SDS011;16405;53.964;13.448;2023-04-25T14:29:08;19.25;;;2.80;;
29432;SDS011;16405;53.964;13.448;2023-04-25T14:31:37;14.05;;;2.42;;
29432;SDS011;16405;53.964;13.448;2023-04-25T14:34:05;20.67;;;3.55;;
29432;SDS011;16405;53.964;13.448;2023-04-25T14:36:31;19.85;;;2.58;;
29432;SDS011;16405;53.964;13.448;2023-04-25T14:38:58;9.60;;;1.60;;
29432;SDS011;16405;53.964;13.448;2023-04-25T14:41:24;13.98;;;2.33;;
29432;SDS011;16405;53.964;13.448;2023-04-25T14:43:51;10.00;;;1.73;;
29432;SDS011;16405;53.964;13.448;2023-04-25T14:46:21;16.30;;;2.38;;
29432;SDS011;16405;53.964;13.448;2023-04-25T14:48:48;23.25;;;3.10;;
29432;SDS011;16405;53.964;13.448;2023-04-25T14:51:14;12.60;;;2.45;;
29432;SDS011;16405;53.964;13.448;2023-04-25T14:53:41;19.77;;;3.28;;